sensor_id;sensor_type;location;lat;lon;timestamp;P1;durP1;ratioP1;P2;durP2;ratioP2
19384;SDS011;9828;54.122;17.974;2023-09-19T00:01:52;14.85;;;13.40;;
19384;SDS011;9828;54.122;17.974;2023-09-19T00:07:34;17.95;;;14.52;;
19384;SDS011;9828;54.122;17.974;2023-09-19T00:12:58;17.90;;;14.70;;
19384;SDS011;9828;54.122;17.974;2023-09-19T00:18:20;17.50;;;15.57;;
19384;SDS011;9828;54.122;17.974;2023-09-19T00:23:43;16.30;;;14.27;;
19384;SDS011;9828;54.122;17.974;2023-09-19T00:29:04;29.00;;;15.70;;
19384;SDS011;9828;54.122;17.974;2023-09-19T00:34:29;15.68;;;14.18;;
19384;SDS011;9828;54.122;17.974;2023-09-19T00:39:54;18.48;;;15.05;;
19384;SDS011;9828;54.122;17.974;2023-09-19T00:45:16;19.63;;;15.35;;
19384;SDS011;9828;54.122;17.974;2023-09-19T00:50:38;16.27;;;14.65;;
19384;SDS011;9828;54.122;17.974;2023-09-19T00:56:03;18.55;;;15.35;;
19384;SDS011;9828;54.122;17.974;2023-09-19T01:01:28;17.63;;;15.38;;
19384;SDS011;9828;54.122;17.974;2023-09-19T01:06:50;14.85;;;13.27;;
19384;SDS011;9828;54.122;17.974;2023-09-19T01:12:14;13.93;;;12.45;;
19384;SDS011;9828;54.122;17.974;2023-09-19T01:17:42;15.30;;;11.10;;
19384;SDS011;9828;54.122;17.974;2023-09-19T01:23:19;12.70;;;10.48;;
19384;SDS011;9828;54.122;17.974;2023-09-19T01:28:53;14.82;;;9.75;;
19384;SDS011;9828;54.122;17.974;2023-09-19T01:34:18;10.07;;;8.70;;
19384;SDS011;9828;54.122;17.974;2023-09-19T01:39:40;13.57;;;9.55;;
19384;SDS011;9828;54.122;17.974;2023-09-19T01:45:12;8.57;;;7.75;;
19384;SDS011;9828;54.122;17.974;2023-09-19T01:50:49;10.07;;;7.55;;
19384;SDS011;9828;54.122;17.974;2023-09-19T01:56:28;10.95;;;7.78;;
19384;SDS011;9828;54.122;17.974;2023-09-19T02:01:53;6.72;;;6.03;;
19384;SDS011;9828;54.122;17.974;2023-09-19T02:07:16;6.82;;;6.13;;
19384;SDS011;9828;54.122;17.974;2023-09-19T02:12:38;10.63;;;6.63;;
19384;SDS011;9828;54.122;17.974;2023-09-19T02:17:59;7.30;;;5.40;;
19384;SDS011;9828;54.122;17.974;2023-09-19T02:23:21;6.63;;;5.38;;
19384;SDS011;9828;54.122;17.974;2023-09-19T02:28:42;8.63;;;5.55;;
19384;SDS011;9828;54.122;17.974;2023-09-19T02:34:04;8.18;;;5.68;;
19384;SDS011;9828;54.122;17.974;2023-09-19T02:39:27;6.70;;;5.10;;
19384;SDS011;9828;54.122;17.974;2023-09-19T02:44:49;8.95;;;5.43;;
19384;SDS011;9828;54.122;17.974;2023-09-19T02:50:11;5.57;;;4.80;;
19384;SDS011;9828;54.122;17.974;2023-09-19T02:55:33;7.45;;;4.18;;
19384;SDS011;9828;54.122;17.974;2023-09-19T03:00:55;5.18;;;4.10;;
19384;SDS011;9828;54.122;17.974;2023-09-19T03:06:17;5.35;;;4.00;;
19384;SDS011;9828;54.122;17.974;2023-09-19T03:11:40;4.80;;;3.75;;
19384;SDS011;9828;54.122;17.974;2023-09-19T03:17:03;6.55;;;4.25;;
19384;SDS011;9828;54.122;17.974;2023-09-19T03:22:26;7.75;;;4.38;;
19384;SDS011;9828;54.122;17.974;2023-09-19T03:27:48;4.90;;;4.30;;
19384;SDS011;9828;54.122;17.974;2023-09-19T03:33:11;5.60;;;3.97;;
19384;SDS011;9828;54.122;17.974;2023-09-19T03:38:34;9.40;;;5.18;;
19384;SDS011;9828;54.122;17.974;2023-09-19T03:43:56;15.23;;;8.07;;
19384;SDS011;9828;54.122;17.974;2023-09-19T03:49:18;11.38;;;6.78;;
19384;SDS011;9828;54.122;17.974;2023-09-19T03:54:40;16.98;;;10.52;;
19384;SDS011;9828;54.122;17.974;2023-09-19T04:00:03;20.95;;;9.85;;
19384;SDS011;9828;54.122;17.974;2023-09-19T04:05:32;13.60;;;6.18;;
19384;SDS011;9828;54.122;17.974;2023-09-19T04:10:54;10.48;;;5.35;;
19384;SDS011;9828;54.122;17.974;2023-09-19T04:16:16;6.38;;;5.05;;
19384;SDS011;9828;54.122;17.974;2023-09-19T04:21:38;7.95;;;5.22;;
19384;SDS011;9828;54.122;17.974;2023-09-19T04:27:01;5.68;;;3.95;;
19384;SDS011;9828;54.122;17.974;2023-09-19T04:32:23;6.13;;;4.15;;
19384;SDS011;9828;54.122;17.974;2023-09-19T04:37:45;6.45;;;4.03;;
19384;SDS011;9828;54.122;17.974;2023-09-19T04:43:07;6.68;;;4.22;;
19384;SDS011;9828;54.122;17.974;2023-09-19T04:48:29;4.63;;;3.92;;
19384;SDS011;9828;54.122;17.974;2023-09-19T04:53:52;5.60;;;4.22;;
19384;SDS011;9828;54.122;17.974;2023-09-19T04:59:14;6.47;;;4.93;;
19384;SDS011;9828;54.122;17.974;2023-09-19T05:04:36;8.02;;;4.78;;
19384;SDS011;9828;54.122;17.974;2023-09-19T05:09:59;9.77;;;5.07;;
19384;SDS011;9828;54.122;17.974;2023-09-19T05:15:21;10.50;;;5.53;;
19384;SDS011;9828;54.122;17.974;2023-09-19T05:20:43;8.23;;;4.45;;
19384;SDS011;9828;54.122;17.974;2023-09-19T05:26:05;14.85;;;6.03;;
19384;SDS011;9828;54.122;17.974;2023-09-19T05:31:27;8.48;;;5.20;;
19384;SDS011;9828;54.122;17.974;2023-09-19T05:36:49;7.13;;;4.03;;
19384;SDS011;9828;54.122;17.974;2023-09-19T05:42:10;5.60;;;4.00;;
19384;SDS011;9828;54.122;17.974;2023-09-19T05:47:32;7.38;;;4.35;;
19384;SDS011;9828;54.122;17.974;2023-09-19T05:52:55;8.38;;;4.10;;
19384;SDS011;9828;54.122;17.974;2023-09-19T05:58:17;6.53;;;4.25;;
19384;SDS011;9828;54.122;17.974;2023-09-19T06:03:40;6.85;;;4.40;;
19384;SDS011;9828;54.122;17.974;2023-09-19T06:09:03;5.63;;;4.25;;
19384;SDS011;9828;54.122;17.974;2023-09-19T06:14:26;6.93;;;3.60;;
19384;SDS011;9828;54.122;17.974;2023-09-19T06:19:48;6.53;;;4.22;;
19384;SDS011;9828;54.122;17.974;2023-09-19T06:25:10;8.15;;;4.10;;
19384;SDS011;9828;54.122;17.974;2023-09-19T06:30:33;4.38;;;3.42;;
19384;SDS011;9828;54.122;17.974;2023-09-19T06:35:55;7.63;;;4.07;;
19384;SDS011;9828;54.122;17.974;2023-09-19T06:41:20;5.85;;;3.42;;
19384;SDS011;9828;54.122;17.974;2023-09-19T06:46:45;8.32;;;3.28;;
19384;SDS011;9828;54.122;17.974;2023-09-19T06:52:11;4.45;;;3.45;;
19384;SDS011;9828;54.122;17.974;2023-09-19T06:57:32;4.70;;;3.53;;
19384;SDS011;9828;54.122;17.974;2023-09-19T07:02:55;4.97;;;3.25;;
19384;SDS011;9828;54.122;17.974;2023-09-19T07:08:22;5.05;;;3.60;;
19384;SDS011;9828;54.122;17.974;2023-09-19T07:13:43;5.93;;;3.45;;
19384;SDS011;9828;54.122;17.974;2023-09-19T07:19:05;5.40;;;3.72;;
19384;SDS011;9828;54.122;17.974;2023-09-19T07:24:27;3.22;;;2.92;;
19384;SDS011;9828;54.122;17.974;2023-09-19T07:29:49;3.30;;;3.00;;
19384;SDS011;9828;54.122;17.974;2023-09-19T07:35:12;5.25;;;3.88;;
19384;SDS011;9828;54.122;17.974;2023-09-19T07:40:34;4.63;;;3.25;;
19384;SDS011;9828;54.122;17.974;2023-09-19T07:45:57;5.05;;;3.40;;
19384;SDS011;9828;54.122;17.974;2023-09-19T07:51:21;5.75;;;3.15;;
19384;SDS011;9828;54.122;17.974;2023-09-19T07:56:44;8.00;;;3.35;;
19384;SDS011;9828;54.122;17.974;2023-09-19T08:02:06;3.72;;;2.85;;
19384;SDS011;9828;54.122;17.974;2023-09-19T08:07:30;4.03;;;2.70;;
19384;SDS011;9828;54.122;17.974;2023-09-19T08:12:52;3.58;;;2.35;;
19384;SDS011;9828;54.122;17.974;2023-09-19T08:18:19;5.15;;;2.95;;
19384;SDS011;9828;54.122;17.974;2023-09-19T08:23:43;5.05;;;2.60;;
19384;SDS011;9828;54.122;17.974;2023-09-19T08:29:05;3.65;;;2.55;;
19384;SDS011;9828;54.122;17.974;2023-09-19T08:34:32;4.32;;;2.33;;
19384;SDS011;9828;54.122;17.974;2023-09-19T08:39:55;7.05;;;3.05;;
19384;SDS011;9828;54.122;17.974;2023-09-19T08:45:17;2.63;;;1.92;;
19384;SDS011;9828;54.122;17.974;2023-09-19T08:50:41;4.03;;;1.90;;
19384;SDS011;9828;54.122;17.974;2023-09-19T08:56:06;5.60;;;1.92;;
19384;SDS011;9828;54.122;17.974;2023-09-19T09:01:31;3.67;;;2.05;;
19384;SDS011;9828;54.122;17.974;2023-09-19T09:06:53;4.75;;;3.25;;
19384;SDS011;9828;54.122;17.974;2023-09-19T09:12:16;3.72;;;1.73;;
19384;SDS011;9828;54.122;17.974;2023-09-19T09:17:38;3.35;;;1.90;;
19384;SDS011;9828;54.122;17.974;2023-09-19T09:22:59;3.70;;;1.88;;
19384;SDS011;9828;54.122;17.974;2023-09-19T09:28:25;5.38;;;1.75;;
19384;SDS011;9828;54.122;17.974;2023-09-19T09:33:55;2.47;;;1.67;;
19384;SDS011;9828;54.122;17.974;2023-09-19T09:39:29;2.15;;;1.20;;
19384;SDS011;9828;54.122;17.974;2023-09-19T09:45:07;8.80;;;1.60;;
19384;SDS011;9828;54.122;17.974;2023-09-19T09:50:38;7.82;;;2.03;;
19384;SDS011;9828;54.122;17.974;2023-09-19T09:56:06;4.60;;;2.05;;
19384;SDS011;9828;54.122;17.974;2023-09-19T10:01:45;2.53;;;1.30;;
19384;SDS011;9828;54.122;17.974;2023-09-19T10:07:09;3.92;;;1.90;;
19384;SDS011;9828;54.122;17.974;2023-09-19T10:12:46;2.80;;;1.45;;
19384;SDS011;9828;54.122;17.974;2023-09-19T10:18:10;4.00;;;1.85;;
19384;SDS011;9828;54.122;17.974;2023-09-19T10:23:39;5.00;;;3.88;;
19384;SDS011;9828;54.122;17.974;2023-09-19T10:29:05;4.28;;;1.35;;
19384;SDS011;9828;54.122;17.974;2023-09-19T10:34:28;3.08;;;1.75;;
19384;SDS011;9828;54.122;17.974;2023-09-19T10:39:51;2.70;;;1.67;;
19384;SDS011;9828;54.122;17.974;2023-09-19T10:45:15;3.42;;;1.73;;
19384;SDS011;9828;54.122;17.974;2023-09-19T10:50:52;2.75;;;1.63;;
19384;SDS011;9828;54.122;17.974;2023-09-19T10:56:26;3.42;;;1.60;;
19384;SDS011;9828;54.122;17.974;2023-09-19T11:01:54;3.17;;;1.52;;
19384;SDS011;9828;54.122;17.974;2023-09-19T11:07:20;6.45;;;1.90;;
19384;SDS011;9828;54.122;17.974;2023-09-19T11:18:30;4.15;;;1.92;;
19384;SDS011;9828;54.122;17.974;2023-09-19T11:29:31;5.43;;;1.95;;
19384;SDS011;9828;54.122;17.974;2023-09-19T11:34:54;11.48;;;4.32;;
19384;SDS011;9828;54.122;17.974;2023-09-19T11:40:29;5.25;;;2.13;;
19384;SDS011;9828;54.122;17.974;2023-09-19T11:51:19;3.58;;;1.73;;
19384;SDS011;9828;54.122;17.974;2023-09-19T11:56:51;2.08;;;1.52;;
19384;SDS011;9828;54.122;17.974;2023-09-19T12:07:59;3.65;;;1.77;;
19384;SDS011;9828;54.122;17.974;2023-09-19T12:13:21;3.90;;;1.52;;
19384;SDS011;9828;54.122;17.974;2023-09-19T12:18:43;7.63;;;1.60;;
19384;SDS011;9828;54.122;17.974;2023-09-19T12:24:12;3.42;;;1.60;;
19384;SDS011;9828;54.122;17.974;2023-09-19T12:29:49;3.45;;;1.20;;
19384;SDS011;9828;54.122;17.974;2023-09-19T12:35:29;5.25;;;1.65;;
19384;SDS011;9828;54.122;17.974;2023-09-19T12:40:57;5.72;;;1.90;;
19384;SDS011;9828;54.122;17.974;2023-09-19T12:46:22;5.20;;;1.60;;
19384;SDS011;9828;54.122;17.974;2023-09-19T12:51:47;1.75;;;1.33;;
19384;SDS011;9828;54.122;17.974;2023-09-19T12:57:08;3.10;;;1.65;;
19384;SDS011;9828;54.122;17.974;2023-09-19T13:08:39;3.30;;;2.00;;
19384;SDS011;9828;54.122;17.974;2023-09-19T13:19:41;5.15;;;1.90;;
19384;SDS011;9828;54.122;17.974;2023-09-19T13:25:07;6.30;;;1.80;;
19384;SDS011;9828;54.122;17.974;2023-09-19T13:30:36;2.63;;;1.40;;
19384;SDS011;9828;54.122;17.974;2023-09-19T13:36:03;3.33;;;1.75;;
19384;SDS011;9828;54.122;17.974;2023-09-19T13:41:25;2.95;;;1.70;;
19384;SDS011;9828;54.122;17.974;2023-09-19T13:46:47;3.75;;;2.67;;
19384;SDS011;9828;54.122;17.974;2023-09-19T13:52:09;2.72;;;1.77;;
19384;SDS011;9828;54.122;17.974;2023-09-19T13:57:33;2.42;;;1.55;;
19384;SDS011;9828;54.122;17.974;2023-09-19T14:02:55;5.35;;;2.10;;
19384;SDS011;9828;54.122;17.974;2023-09-19T14:08:17;4.32;;;1.52;;
19384;SDS011;9828;54.122;17.974;2023-09-19T14:13:39;2.88;;;1.65;;
19384;SDS011;9828;54.122;17.974;2023-09-19T14:19:01;3.40;;;1.88;;
19384;SDS011;9828;54.122;17.974;2023-09-19T14:24:22;5.25;;;2.33;;
19384;SDS011;9828;54.122;17.974;2023-09-19T14:29:44;3.58;;;2.42;;
19384;SDS011;9828;54.122;17.974;2023-09-19T14:35:06;4.20;;;2.22;;
19384;SDS011;9828;54.122;17.974;2023-09-19T14:40:30;7.10;;;2.42;;
19384;SDS011;9828;54.122;17.974;2023-09-19T14:45:52;5.75;;;2.88;;
19384;SDS011;9828;54.122;17.974;2023-09-19T14:51:14;4.22;;;2.22;;
19384;SDS011;9828;54.122;17.974;2023-09-19T14:56:35;3.80;;;1.98;;
19384;SDS011;9828;54.122;17.974;2023-09-19T15:01:58;4.00;;;2.17;;
19384;SDS011;9828;54.122;17.974;2023-09-19T15:07:20;5.32;;;1.95;;
19384;SDS011;9828;54.122;17.974;2023-09-19T15:12:41;2.95;;;2.20;;
19384;SDS011;9828;54.122;17.974;2023-09-19T15:18:04;4.00;;;2.10;;
19384;SDS011;9828;54.122;17.974;2023-09-19T15:23:26;4.60;;;2.65;;
19384;SDS011;9828;54.122;17.974;2023-09-19T15:28:47;3.65;;;2.00;;
19384;SDS011;9828;54.122;17.974;2023-09-19T15:34:10;3.28;;;1.60;;
19384;SDS011;9828;54.122;17.974;2023-09-19T15:39:35;4.35;;;2.30;;
19384;SDS011;9828;54.122;17.974;2023-09-19T15:44:58;3.95;;;1.98;;
19384;SDS011;9828;54.122;17.974;2023-09-19T15:50:19;3.92;;;1.90;;
19384;SDS011;9828;54.122;17.974;2023-09-19T15:55:42;3.25;;;2.13;;
19384;SDS011;9828;54.122;17.974;2023-09-19T16:01:05;2.45;;;1.70;;
19384;SDS011;9828;54.122;17.974;2023-09-19T16:06:30;3.25;;;1.95;;
19384;SDS011;9828;54.122;17.974;2023-09-19T16:11:52;3.92;;;2.08;;
19384;SDS011;9828;54.122;17.974;2023-09-19T16:17:13;5.93;;;3.13;;
19384;SDS011;9828;54.122;17.974;2023-09-19T16:22:35;5.93;;;2.65;;
19384;SDS011;9828;54.122;17.974;2023-09-19T16:27:57;6.05;;;2.63;;
19384;SDS011;9828;54.122;17.974;2023-09-19T16:33:18;2.85;;;2.20;;
19384;SDS011;9828;54.122;17.974;2023-09-19T16:38:41;4.78;;;2.33;;
19384;SDS011;9828;54.122;17.974;2023-09-19T16:44:04;5.22;;;2.75;;
19384;SDS011;9828;54.122;17.974;2023-09-19T16:49:30;4.72;;;2.65;;
19384;SDS011;9828;54.122;17.974;2023-09-19T16:54:51;4.82;;;2.92;;
19384;SDS011;9828;54.122;17.974;2023-09-19T17:00:13;6.90;;;3.00;;
19384;SDS011;9828;54.122;17.974;2023-09-19T17:05:38;4.97;;;2.30;;
19384;SDS011;9828;54.122;17.974;2023-09-19T17:11:01;2.80;;;2.17;;
19384;SDS011;9828;54.122;17.974;2023-09-19T17:16:33;5.05;;;2.90;;
19384;SDS011;9828;54.122;17.974;2023-09-19T17:21:55;3.95;;;3.22;;
19384;SDS011;9828;54.122;17.974;2023-09-19T17:27:17;6.75;;;4.35;;
19384;SDS011;9828;54.122;17.974;2023-09-19T17:32:39;8.25;;;5.60;;
19384;SDS011;9828;54.122;17.974;2023-09-19T17:38:01;21.80;;;15.93;;
19384;SDS011;9828;54.122;17.974;2023-09-19T17:43:24;27.60;;;18.70;;
19384;SDS011;9828;54.122;17.974;2023-09-19T17:48:46;17.52;;;11.15;;
19384;SDS011;9828;54.122;17.974;2023-09-19T17:54:09;12.45;;;8.15;;
19384;SDS011;9828;54.122;17.974;2023-09-19T17:59:31;16.25;;;7.82;;
19384;SDS011;9828;54.122;17.974;2023-09-19T18:04:52;10.75;;;5.28;;
19384;SDS011;9828;54.122;17.974;2023-09-19T18:10:14;8.82;;;4.75;;
19384;SDS011;9828;54.122;17.974;2023-09-19T18:15:35;14.38;;;6.20;;
19384;SDS011;9828;54.122;17.974;2023-09-19T18:20:59;21.33;;;12.32;;
19384;SDS011;9828;54.122;17.974;2023-09-19T18:26:21;16.30;;;9.13;;
19384;SDS011;9828;54.122;17.974;2023-09-19T18:31:43;13.35;;;8.82;;
19384;SDS011;9828;54.122;17.974;2023-09-19T18:37:06;9.60;;;6.13;;
19384;SDS011;9828;54.122;17.974;2023-09-19T18:42:27;11.05;;;5.00;;
19384;SDS011;9828;54.122;17.974;2023-09-19T18:47:50;8.93;;;4.03;;
19384;SDS011;9828;54.122;17.974;2023-09-19T18:53:11;6.93;;;3.85;;
19384;SDS011;9828;54.122;17.974;2023-09-19T18:58:33;8.57;;;3.28;;
19384;SDS011;9828;54.122;17.974;2023-09-19T19:03:55;13.02;;;3.80;;
19384;SDS011;9828;54.122;17.974;2023-09-19T19:09:17;8.30;;;3.97;;
19384;SDS011;9828;54.122;17.974;2023-09-19T19:14:40;7.38;;;3.60;;
19384;SDS011;9828;54.122;17.974;2023-09-19T19:20:05;6.22;;;3.20;;
19384;SDS011;9828;54.122;17.974;2023-09-19T19:25:28;7.70;;;4.28;;
19384;SDS011;9828;54.122;17.974;2023-09-19T19:30:49;7.53;;;3.53;;
19384;SDS011;9828;54.122;17.974;2023-09-19T19:36:11;7.45;;;3.45;;
19384;SDS011;9828;54.122;17.974;2023-09-19T19:41:34;10.93;;;5.38;;
19384;SDS011;9828;54.122;17.974;2023-09-19T19:46:59;9.32;;;4.20;;
19384;SDS011;9828;54.122;17.974;2023-09-19T19:52:21;8.00;;;3.80;;
19384;SDS011;9828;54.122;17.974;2023-09-19T19:57:45;5.38;;;3.65;;
19384;SDS011;9828;54.122;17.974;2023-09-19T20:03:06;5.97;;;3.42;;
19384;SDS011;9828;54.122;17.974;2023-09-19T20:08:28;11.07;;;4.50;;
19384;SDS011;9828;54.122;17.974;2023-09-19T20:13:50;6.88;;;3.53;;
19384;SDS011;9828;54.122;17.974;2023-09-19T20:19:12;7.38;;;3.30;;
19384;SDS011;9828;54.122;17.974;2023-09-19T20:24:34;8.88;;;4.10;;
19384;SDS011;9828;54.122;17.974;2023-09-19T20:29:58;18.30;;;6.65;;
19384;SDS011;9828;54.122;17.974;2023-09-19T20:35:19;13.98;;;5.13;;
19384;SDS011;9828;54.122;17.974;2023-09-19T20:40:41;12.98;;;3.63;;
19384;SDS011;9828;54.122;17.974;2023-09-19T20:46:04;8.90;;;3.65;;
19384;SDS011;9828;54.122;17.974;2023-09-19T20:51:25;10.88;;;3.20;;
19384;SDS011;9828;54.122;17.974;2023-09-19T20:56:47;8.82;;;3.80;;
19384;SDS011;9828;54.122;17.974;2023-09-19T21:02:10;8.27;;;3.65;;
19384;SDS011;9828;54.122;17.974;2023-09-19T21:07:32;6.93;;;3.10;;
19384;SDS011;9828;54.122;17.974;2023-09-19T21:12:54;8.95;;;3.15;;
19384;SDS011;9828;54.122;17.974;2023-09-19T21:18:15;5.50;;;2.85;;
19384;SDS011;9828;54.122;17.974;2023-09-19T21:23:37;6.72;;;3.63;;
19384;SDS011;9828;54.122;17.974;2023-09-19T21:29:00;8.75;;;4.07;;
19384;SDS011;9828;54.122;17.974;2023-09-19T21:34:21;7.07;;;2.95;;
19384;SDS011;9828;54.122;17.974;2023-09-19T21:39:43;8.75;;;3.40;;
19384;SDS011;9828;54.122;17.974;2023-09-19T21:45:05;11.13;;;4.28;;
19384;SDS011;9828;54.122;17.974;2023-09-19T21:50:27;7.75;;;3.05;;
19384;SDS011;9828;54.122;17.974;2023-09-19T21:55:50;7.22;;;3.08;;
19384;SDS011;9828;54.122;17.974;2023-09-19T22:01:18;8.02;;;3.40;;
19384;SDS011;9828;54.122;17.974;2023-09-19T22:06:43;6.25;;;2.75;;
19384;SDS011;9828;54.122;17.974;2023-09-19T22:12:05;6.32;;;2.78;;
19384;SDS011;9828;54.122;17.974;2023-09-19T22:17:27;6.03;;;3.30;;
19384;SDS011;9828;54.122;17.974;2023-09-19T22:22:49;5.95;;;3.08;;
19384;SDS011;9828;54.122;17.974;2023-09-19T22:28:12;11.27;;;3.45;;
19384;SDS011;9828;54.122;17.974;2023-09-19T22:33:37;6.20;;;2.75;;
19384;SDS011;9828;54.122;17.974;2023-09-19T22:38:59;13.32;;;3.10;;
19384;SDS011;9828;54.122;17.974;2023-09-19T22:44:24;7.88;;;3.10;;
19384;SDS011;9828;54.122;17.974;2023-09-19T22:49:46;14.32;;;3.20;;
19384;SDS011;9828;54.122;17.974;2023-09-19T22:55:09;5.07;;;2.38;;
19384;SDS011;9828;54.122;17.974;2023-09-19T23:06:10;6.32;;;2.72;;
19384;SDS011;9828;54.122;17.974;2023-09-19T23:11:35;4.63;;;2.30;;
19384;SDS011;9828;54.122;17.974;2023-09-19T23:17:00;10.45;;;2.85;;
19384;SDS011;9828;54.122;17.974;2023-09-19T23:22:25;5.55;;;2.67;;
19384;SDS011;9828;54.122;17.974;2023-09-19T23:27:49;7.72;;;3.13;;
19384;SDS011;9828;54.122;17.974;2023-09-19T23:33:13;8.73;;;3.08;;
19384;SDS011;9828;54.122;17.974;2023-09-19T23:38:35;4.95;;;2.80;;
19384;SDS011;9828;54.122;17.974;2023-09-19T23:43:59;4.88;;;2.70;;
19384;SDS011;9828;54.122;17.974;2023-09-19T23:49:21;7.43;;;2.85;;
19384;SDS011;9828;54.122;17.974;2023-09-19T23:54:43;5.53;;;2.55;;
